Cheyenne Regional Jerry Olson Field
KCYS : now visible

Airfield :











YOU CAN JOIN US ON...

 
LOGIN :

Register | Disclaimer

   EN    FR    IT 

 









Legend :    VFR   Marginal VFR   IFR   Intensive IFR   Very Intensive IFR
Visi :
Ceiling :
>= 8 km
>= 3000ft
5 to 8 km
1000 to 3000 ft
1500m to 5 km
500 to 1000 ft
800 to 1500m
200 to 500 ft
< 800m
< 200 ft
Symbols :   Thunderstorms  Fog  Heavy snow  Heavy precipitations  Wind > 20 kt






- Airport Elevation : 6159 ft
- IATA code : CYS


KCYS - Cheyenne Regional Jerry Olson Field

CURRENT METAR :
  • 151453Z 28003KT 10SM CLR M12/M14 A2981 RMK AO2 SLP160 T11171144 53011

EXPIRED METARs :
  • 151353Z 32005KT 10SM CLR M09/M13 A2979 RMK AO2 SLP143 T10941128
  • 151253Z 36008KT 10SM CLR M09/M13 A2977 RMK AO2 SLP139 T10941133

TAF KCYS
Valid from the 15 at 12:00 until the 16 at 12:00 UTC


151120Z 1512/1612 33012KT P6SM SCT050 SCT150



MET'MAP, your aeronautical weather chart ! - Copyright ORBIFLY December 2007 - Disclaimer

ORBIFLY MET'MAP TEAM :

Programming & Development : Alexandra Zaïnal
Concept & original design : Baudouin d'Aumeries
Assistance for programming : Marc-Olivier Méhu
Technical & hardware support : Manuel Goepfert

Contact : metmap@orbifly.com




SOURCES & CREDITS :

   NOAA       Earth
Advisory